createdAt,value
2022-09-01T00:38:54.776Z,61.89
2022-09-01T00:39:53.405Z,61.49
2022-09-01T00:40:53.426Z,61.61
2022-09-01T00:41:53.375Z,61.72
2022-09-01T00:42:53.397Z,61.72
2022-09-01T00:43:53.364Z,62.12
2022-09-01T00:44:53.357Z,61.72
2022-09-01T00:45:53.410Z,61.92
2022-09-01T00:46:55.247Z,62.43
2022-09-01T00:47:53.296Z,61.82
2022-09-01T00:48:53.321Z,61.82
2022-09-01T00:49:53.269Z,62.02
2022-09-01T00:50:53.249Z,62.12
2022-09-01T00:51:53.240Z,62.12
2022-09-01T00:52:53.245Z,62.12
2022-09-01T00:53:53.214Z,62.22
2022-09-01T00:54:53.233Z,62.32
2022-09-01T00:55:53.190Z,62.35
2022-09-01T00:56:57.717Z,62.35
2022-09-01T00:57:53.154Z,62.45
2022-09-01T00:58:53.161Z,62.85
2022-09-01T00:59:53.132Z,62.45
2022-09-01T01:00:53.139Z,62.35
2022-09-01T01:01:53.170Z,62.25
2022-09-01T01:02:53.221Z,62.12
2022-09-01T01:03:53.074Z,62.22
2022-09-01T01:04:53.082Z,62.22
2022-09-01T01:05:53.054Z,62.35
2022-09-01T01:06:53.044Z,62.63
2022-09-01T01:07:53.016Z,62.63
2022-09-01T01:08:53.058Z,62.65
2022-09-01T01:09:53.019Z,63.16
2022-09-01T01:10:52.993Z,63.67
2022-09-01T01:11:52.976Z,63.46
2022-09-01T01:12:52.965Z,63.26
2022-09-01T01:13:52.940Z,63.46
2022-09-01T01:14:52.952Z,63.26
2022-09-01T01:15:52.909Z,63.16
2022-09-01T01:16:52.929Z,63.46
2022-09-01T01:17:52.892Z,62.55
2022-09-01T01:18:52.874Z,62.65
2022-09-01T01:19:52.868Z,62.85
2022-09-01T01:20:52.877Z,62.55
2022-09-01T01:21:52.839Z,62.55
2022-09-01T01:22:52.874Z,62.76
2022-09-01T01:23:52.813Z,62.55
2022-09-01T01:24:52.802Z,62.55
2022-09-01T01:25:52.800Z,62.65
2022-09-01T01:26:52.770Z,62.96
2022-09-01T01:27:52.751Z,62.96
2022-09-01T01:28:52.751Z,63.16
2022-09-01T01:29:52.731Z,63.06
2022-09-01T01:30:52.850Z,63.06
2022-09-01T01:31:52.714Z,63.26
2022-09-01T01:32:52.683Z,63.16
2022-09-01T01:33:52.686Z,63.36
2022-09-01T01:34:52.647Z,63.26
2022-09-01T01:35:52.676Z,63.26
2022-09-01T01:36:52.662Z,63.76
2022-09-01T01:37:52.620Z,63.87
2022-09-01T01:38:52.603Z,63.56
2022-09-01T01:39:52.594Z,63.76
2022-09-01T01:40:52.579Z,64.00
2022-09-01T01:41:52.585Z,63.90
2022-09-01T01:42:52.557Z,63.79
2022-09-01T01:43:52.563Z,64.10
2022-09-01T01:44:52.535Z,64.10
2022-09-01T01:45:52.617Z,64.00
2022-09-01T01:46:52.497Z,64.00
2022-09-01T01:47:52.497Z,64.30
2022-09-01T01:48:52.535Z,64.20
2022-09-01T01:49:52.510Z,64.40
2022-09-01T01:50:52.446Z,64.70
2022-09-01T01:51:52.488Z,65.01
2022-09-01T01:52:57.148Z,64.81
2022-09-01T01:53:53.439Z,64.61
2022-09-01T01:54:52.380Z,64.70
2022-09-01T01:55:52.373Z,64.61
2022-09-01T01:56:52.361Z,64.90
2022-09-01T01:57:52.348Z,64.90
2022-09-01T01:58:52.322Z,64.94
2022-09-01T01:59:52.346Z,64.73
2022-09-01T02:00:52.309Z,64.73
2022-09-01T02:01:52.328Z,64.53
2022-09-01T02:02:52.370Z,64.70
2022-09-01T02:03:52.265Z,64.50
2022-09-01T02:04:52.271Z,64.30
2022-09-01T02:05:52.267Z,64.30
2022-09-01T02:06:52.229Z,64.30
2022-09-01T02:07:52.214Z,64.20
2022-09-01T02:08:52.207Z,64.30
2022-09-01T02:09:52.194Z,64.10
2022-09-01T02:10:52.165Z,64.10
2022-09-01T02:11:52.174Z,64.61
2022-09-01T02:12:52.142Z,64.70
2022-09-01T02:13:52.129Z,64.40
2022-09-01T02:14:52.105Z,64.43
2022-09-01T02:15:52.145Z,64.53
2022-09-01T02:16:52.235Z,64.64
2022-09-01T02:17:52.086Z,64.64
2022-09-01T02:18:52.076Z,64.73
2022-09-01T02:19:52.058Z,64.73
2022-09-01T02:20:52.035Z,64.53
2022-09-01T02:21:52.019Z,64.94
2022-09-01T02:22:52.017Z,64.53
2022-09-01T02:23:51.996Z,64.73
2022-09-01T02:24:51.986Z,64.73
2022-09-01T02:26:14.479Z,64.53
2022-09-01T02:26:52.947Z,65.04
2022-09-01T02:27:51.944Z,64.84
2022-09-01T02:28:55.294Z,64.94
2022-09-01T02:29:51.929Z,64.94
2022-09-01T02:30:51.992Z,64.73
2022-09-01T02:31:51.871Z,65.14
2022-09-01T02:32:51.884Z,65.04
2022-09-01T02:33:51.859Z,65.47
2022-09-01T02:34:51.875Z,65.47
2022-09-01T02:35:51.855Z,65.37
2022-09-01T02:36:51.804Z,65.37
2022-09-01T02:37:51.802Z,65.17
2022-09-01T02:38:53.508Z,65.17
2022-09-01T02:39:51.807Z,65.17
2022-09-01T02:40:51.785Z,65.47
2022-09-01T02:41:51.748Z,65.47
2022-09-01T02:42:51.725Z,65.47
2022-09-01T02:43:51.735Z,65.47
2022-09-01T02:44:51.706Z,65.17
2022-09-01T02:45:51.733Z,65.47
2022-09-01T02:46:51.683Z,65.67
2022-09-01T02:47:51.668Z,65.67
2022-09-01T02:48:51.646Z,65.88
2022-09-01T02:49:51.653Z,65.81
2022-09-01T02:50:51.615Z,66.01
2022-09-01T02:51:51.637Z,65.91
2022-09-01T02:52:51.593Z,66.01
2022-09-01T02:53:51.598Z,66.01
2022-09-01T02:54:51.558Z,66.01
2022-09-01T02:55:51.567Z,66.01
2022-09-01T02:56:51.563Z,66.11
2022-09-01T02:57:51.516Z,66.01
2022-09-01T02:58:51.523Z,66.11
2022-09-01T02:59:51.499Z,66.31
2022-09-01T03:00:51.533Z,66.21
2022-09-01T03:01:51.486Z,66.21
2022-09-01T03:02:51.472Z,66.31
2022-09-01T03:03:51.457Z,66.41
2022-09-01T03:04:51.525Z,66.31
2022-09-01T03:05:51.425Z,66.55
2022-09-01T03:06:51.411Z,66.55
2022-09-01T03:08:01.062Z,66.44
2022-09-01T03:08:51.517Z,66.55
2022-09-01T03:09:51.585Z,66.75
2022-09-01T03:10:51.356Z,66.64
2022-09-01T03:11:51.368Z,66.75
2022-09-01T03:12:51.336Z,66.95
2022-09-01T03:13:51.383Z,67.25
2022-09-01T03:15:03.899Z,66.95
2022-09-01T03:24:21.995Z,67.39
2022-09-01T03:25:21.918Z,67.49
2022-09-01T03:27:28.512Z,67.59
2022-09-01T03:28:28.639Z,67.59
2022-09-01T03:29:28.570Z,67.59
2022-09-01T03:30:28.601Z,67.69
2022-09-01T03:31:31.151Z,67.79
2022-09-01T03:32:28.340Z,67.79
2022-09-01T03:33:28.298Z,67.99
2022-09-01T03:34:28.270Z,67.99
2022-09-01T03:35:28.279Z,68.70
2022-09-01T03:36:28.370Z,68.40
2022-09-01T03:37:28.253Z,68.60
2022-09-01T03:38:28.251Z,68.50
2022-09-01T03:39:28.267Z,68.60
2022-09-01T03:40:28.259Z,68.60
2022-09-01T03:41:28.195Z,68.73
2022-09-01T03:42:28.200Z,68.73
2022-09-01T03:43:35.477Z,68.84
2022-09-01T03:44:29.141Z,68.94
2022-09-01T03:45:28.165Z,68.94
2022-09-01T03:46:28.134Z,68.94
2022-09-01T03:47:28.123Z,68.94
2022-09-01T03:48:28.136Z,68.94
2022-09-01T03:49:28.117Z,69.14
2022-09-01T03:50:28.068Z,69.24
2022-09-01T03:51:28.102Z,69.24
2022-09-01T03:52:28.085Z,69.34
2022-09-01T03:53:28.049Z,69.34
2022-09-01T03:54:28.024Z,69.34
2022-09-01T03:55:28.015Z,69.44
2022-09-01T03:56:27.992Z,69.54
2022-09-01T03:57:28.029Z,69.65
2022-09-01T03:58:27.999Z,69.85
2022-09-01T03:59:31.571Z,70.08
2022-09-01T04:00:40.123Z,70.18
2022-09-01T04:01:28.011Z,70.49
2022-09-01T04:02:27.975Z,70.39
2022-09-01T04:03:28.538Z,70.39
2022-09-01T04:04:27.876Z,70.59
2022-09-01T04:05:27.866Z,70.59
2022-09-01T04:06:27.906Z,70.59
2022-09-01T04:07:27.869Z,70.69
2022-09-01T04:08:29.979Z,70.79
2022-09-01T04:09:28.824Z,70.89
2022-09-01T04:10:27.792Z,70.89
2022-09-01T04:11:27.792Z,71.00
2022-09-01T04:12:27.810Z,71.00
2022-09-01T04:13:27.781Z,71.09
2022-09-01T04:14:27.748Z,71.09
2022-09-01T04:15:27.732Z,71.33
2022-09-01T04:16:27.761Z,71.33
2022-09-01T04:17:30.539Z,71.33
2022-09-01T04:18:27.694Z,71.44
2022-09-01T04:19:27.695Z,71.53
2022-09-01T04:20:27.681Z,71.53
2022-09-01T04:21:27.642Z,71.73
2022-09-01T04:22:27.700Z,71.73
2022-09-01T04:23:28.912Z,71.84
2022-09-01T04:24:27.616Z,71.94
2022-09-01T04:25:27.609Z,71.94
2022-09-01T04:26:27.600Z,71.94
2022-09-01T04:27:27.596Z,72.04
2022-09-01T04:28:27.600Z,72.14
2022-09-01T04:29:27.750Z,72.24
2022-09-01T04:30:27.551Z,72.45
2022-09-01T04:31:27.558Z,72.58
2022-09-01T04:32:27.521Z,72.58
2022-09-01T04:33:27.489Z,72.68
2022-09-01T04:34:27.573Z,72.89
2022-09-01T04:35:27.451Z,72.89
2022-09-01T04:36:27.502Z,72.89
2022-09-01T04:37:27.452Z,72.99
2022-09-01T04:38:27.505Z,72.99
2022-09-01T04:39:27.402Z,73.09
2022-09-01T04:40:27.586Z,73.29
2022-09-01T04:41:27.383Z,73.19
2022-09-01T04:42:27.506Z,73.43
2022-09-01T04:43:27.371Z,73.53
2022-09-01T04:44:27.353Z,73.63
2022-09-01T04:45:27.425Z,73.53
2022-09-01T04:46:27.331Z,73.73
2022-09-01T04:47:27.313Z,73.73
2022-09-01T04:48:27.334Z,73.63
2022-09-01T04:49:27.274Z,73.53
2022-09-01T04:50:27.264Z,73.53
2022-09-01T04:51:27.262Z,73.53
2022-09-01T04:52:27.252Z,73.53
2022-09-01T04:53:28.494Z,73.83
2022-09-01T04:54:27.218Z,73.73
2022-09-01T04:55:27.224Z,74.04
2022-09-01T04:56:27.218Z,74.04
2022-09-01T04:57:27.203Z,74.14
2022-09-01T04:58:27.139Z,74.14
2022-09-01T04:59:27.217Z,74.14
2022-09-01T05:00:27.187Z,74.14
2022-09-01T05:01:27.202Z,74.24
2022-09-01T05:02:27.309Z,74.34
2022-09-01T05:03:27.100Z,74.34
2022-09-01T05:04:27.059Z,74.58
2022-09-01T05:05:27.095Z,74.88
2022-09-01T05:06:27.075Z,74.78
2022-09-01T05:07:27.095Z,74.88
2022-09-01T05:08:27.011Z,75.19
2022-09-01T05:09:27.010Z,74.88
2022-09-01T05:10:26.998Z,74.98
2022-09-01T05:11:26.991Z,74.74
2022-09-01T05:12:27.011Z,74.34
2022-09-01T05:13:26.951Z,74.34
2022-09-01T05:14:26.952Z,74.74
2022-09-01T05:15:27.033Z,74.34
2022-09-01T05:16:26.975Z,74.14
2022-09-01T05:17:26.927Z,74.04
2022-09-01T05:18:26.876Z,74.14
2022-09-01T05:19:26.900Z,73.93
2022-09-01T05:20:26.874Z,74.04
2022-09-01T05:21:26.870Z,73.83
2022-09-01T05:22:26.872Z,74.04
2022-09-01T05:23:26.834Z,73.63
2022-09-01T05:24:26.814Z,73.49
2022-09-01T05:25:26.785Z,73.19
2022-09-01T05:26:26.815Z,73.09
2022-09-01T05:27:26.822Z,73.09
2022-09-01T05:28:26.748Z,72.89
2022-09-01T05:29:26.738Z,72.75
2022-09-01T05:30:26.742Z,74.17
2022-09-01T05:31:26.792Z,72.55
2022-09-01T05:32:26.728Z,72.45
2022-09-01T05:33:26.680Z,72.85
2022-09-01T05:34:26.686Z,72.24
2022-09-01T05:35:32.556Z,72.96
2022-09-01T05:36:29.128Z,73.56
2022-09-01T05:37:26.673Z,74.24
2022-09-01T05:38:26.631Z,72.31
2022-09-01T05:39:26.602Z,72.11
2022-09-01T05:40:26.655Z,72.41
2022-09-01T05:41:26.584Z,71.91
2022-09-01T05:42:39.015Z,71.80
2022-09-01T05:43:26.574Z,72.11
2022-09-01T05:44:26.642Z,72.01
2022-09-01T05:45:26.578Z,71.60
2022-09-01T05:46:26.741Z,71.30
2022-09-01T05:47:26.505Z,71.37
2022-09-01T05:48:26.502Z,71.26
2022-09-01T05:49:26.469Z,72.38
2022-09-01T05:50:26.500Z,71.97
2022-09-01T05:51:43.146Z,71.57
2022-09-01T05:52:27.402Z,71.26
2022-09-01T05:53:26.976Z,70.86
2022-09-01T05:54:26.405Z,71.06
2022-09-01T05:55:26.377Z,71.47
2022-09-01T05:56:26.466Z,72.28
2022-09-01T05:57:34.967Z,72.48
2022-09-01T05:59:22.043Z,71.16
2022-09-01T05:59:27.338Z,70.96
2022-09-01T06:00:26.348Z,70.86
2022-09-01T06:01:26.301Z,70.56
2022-09-01T06:02:26.443Z,70.86
2022-09-01T06:03:26.494Z,70.76
2022-09-01T06:04:26.248Z,70.76
2022-09-01T06:05:26.297Z,70.96
2022-09-01T06:06:26.239Z,70.36
2022-09-01T06:07:26.324Z,70.32
2022-09-01T06:08:26.249Z,70.62
2022-09-01T06:09:26.236Z,70.32
2022-09-01T06:10:26.208Z,70.12
2022-09-01T06:11:26.206Z,70.22
2022-09-01T06:12:26.143Z,69.78
2022-09-01T06:13:27.538Z,69.68
2022-09-01T06:14:26.103Z,70.18
2022-09-01T06:15:26.141Z,70.18
2022-09-01T06:16:26.142Z,69.68
2022-09-01T06:17:26.069Z,69.78
2022-09-01T06:18:26.061Z,70.12
2022-09-01T06:19:26.111Z,70.02
2022-09-01T06:20:26.234Z,70.32
2022-09-01T06:21:26.013Z,70.32
2022-09-01T06:22:26.004Z,70.02
2022-09-01T06:23:25.995Z,70.32
2022-09-01T06:24:26.013Z,70.39
2022-09-01T06:25:25.994Z,69.89
2022-09-01T06:26:25.946Z,69.78
2022-09-01T06:27:25.921Z,69.78
2022-09-01T06:28:25.935Z,69.24
2022-09-01T06:29:25.898Z,69.45
2022-09-01T06:30:25.895Z,69.24
2022-09-01T06:31:25.914Z,68.84
2022-09-01T06:32:26.144Z,68.51
2022-09-01T06:33:25.867Z,68.30
2022-09-01T06:34:25.933Z,68.40
2022-09-01T06:35:25.885Z,68.40
2022-09-01T06:36:25.821Z,68.00
2022-09-01T06:37:25.800Z,67.76
2022-09-01T06:38:25.855Z,67.56
2022-09-01T06:39:25.799Z,67.36
2022-09-01T06:40:25.942Z,67.06
2022-09-01T06:41:25.773Z,66.65
2022-09-01T06:42:25.761Z,66.75
2022-09-01T06:43:25.771Z,66.65
2022-09-01T06:44:25.748Z,67.16
2022-09-01T06:45:25.687Z,67.33
2022-09-01T06:46:25.732Z,66.52
2022-09-01T06:47:25.720Z,66.29
2022-09-01T06:48:25.687Z,66.22
2022-09-01T06:49:25.629Z,65.99
2022-09-01T06:51:26.613Z,65.99
2022-09-01T06:52:25.775Z,65.99
2022-09-01T06:53:45.011Z,65.78
2022-09-01T06:54:26.602Z,65.99
2022-09-01T06:55:25.587Z,66.19
2022-09-01T06:56:25.546Z,66.08
2022-09-01T06:58:26.546Z,66.08
2022-09-01T06:59:25.534Z,65.45
2022-09-01T07:00:25.528Z,65.45
2022-09-01T07:01:25.655Z,65.45
2022-09-01T07:03:26.495Z,65.05
2022-09-01T07:04:25.436Z,64.75
2022-09-01T07:08:26.385Z,64.41
2022-09-01T07:09:44.540Z,64.51
2022-09-01T07:10:26.559Z,64.11
2022-09-01T07:12:26.647Z,63.87
2022-09-01T07:13:25.386Z,64.07
2022-09-01T07:14:25.342Z,63.47
2022-09-01T07:16:35.389Z,63.57
2022-09-01T07:17:26.309Z,63.78
2022-09-01T07:18:25.269Z,63.75
2022-09-01T07:19:48.404Z,63.42
2022-09-01T07:20:26.250Z,62.61
2022-09-01T07:21:42.391Z,62.41
2022-09-01T07:23:26.223Z,62.51
2022-09-01T07:24:31.103Z,62.41
2022-09-01T07:25:35.269Z,62.30
2022-09-01T07:26:26.579Z,62.41
2022-09-01T07:27:25.586Z,61.60
2022-09-01T07:28:26.408Z,61.47
2022-09-01T07:29:26.100Z,61.37
2022-09-01T07:30:25.115Z,61.47
2022-09-01T07:32:44.025Z,58.75
2022-09-01T07:33:41.965Z,57.89
2022-09-01T07:34:41.518Z,57.46
2022-09-01T07:35:26.042Z,57.28
2022-09-01T07:36:25.962Z,57.71
2022-09-01T07:42:31.069Z,65.65
2022-09-01T07:43:28.386Z,59.70
2022-09-01T07:44:25.920Z,59.78
2022-09-01T07:45:26.695Z,59.91
2022-09-01T07:46:40.325Z,60.21
2022-09-01T07:49:30.320Z,59.08
2022-09-01T07:50:40.379Z,58.84
2022-09-01T07:51:41.082Z,58.54
2022-09-01T07:52:25.931Z,59.05
2022-09-01T07:53:24.860Z,57.81
2022-09-01T07:54:24.880Z,58.31
2022-09-01T07:55:24.862Z,58.31
2022-09-01T07:56:24.823Z,57.51
2022-09-01T07:57:24.821Z,57.91
2022-09-01T07:58:24.740Z,57.11
2022-09-01T07:59:24.755Z,57.21
2022-09-01T08:00:24.756Z,57.24
2022-09-01T08:01:25.732Z,57.24
2022-09-01T08:02:24.791Z,58.04
2022-09-01T08:03:24.934Z,57.84
2022-09-01T08:04:24.756Z,57.74
2022-09-01T08:05:25.068Z,57.41
2022-09-01T08:06:24.620Z,56.51
2022-09-01T08:07:24.640Z,55.98
2022-09-01T08:08:28.685Z,56.58
2022-09-01T08:09:35.079Z,55.85
2022-09-01T08:10:25.581Z,55.32
2022-09-01T08:11:40.039Z,55.22
2022-09-01T08:12:28.894Z,55.43
2022-09-01T08:13:24.556Z,55.52
2022-09-01T08:14:24.540Z,54.80
2022-09-01T08:15:41.270Z,53.87
2022-09-01T08:16:25.561Z,54.05
2022-09-01T08:18:25.561Z,53.57
2022-09-01T08:19:24.446Z,53.27
2022-09-01T08:20:24.488Z,53.59
2022-09-01T08:21:24.439Z,53.50
2022-09-01T08:22:24.597Z,53.89
2022-09-01T08:23:24.372Z,53.80
2022-09-01T08:24:24.370Z,53.50
2022-09-01T08:25:25.149Z,53.59
2022-09-01T08:26:24.372Z,53.77
2022-09-01T08:27:24.354Z,52.67
2022-09-01T08:28:27.474Z,52.44
2022-09-01T08:29:24.305Z,52.44
2022-09-01T08:30:24.315Z,51.74
2022-09-01T08:31:24.359Z,51.22
2022-09-01T08:32:24.274Z,51.14
2022-09-01T08:33:24.264Z,51.14
2022-09-01T08:34:24.249Z,51.14
2022-09-01T08:35:24.253Z,51.64
2022-09-01T08:36:25.922Z,51.02
2022-09-01T08:37:24.287Z,51.54
2022-09-01T08:38:24.229Z,51.14
2022-09-01T08:39:24.179Z,50.92
2022-09-01T08:40:24.204Z,51.22
2022-09-01T08:41:28.508Z,51.52
2022-09-01T08:42:24.131Z,51.29
2022-09-01T08:43:24.120Z,50.20
2022-09-01T08:44:24.110Z,50.29
2022-09-01T08:45:24.121Z,50.12
2022-09-01T08:46:24.140Z,50.32
2022-09-01T08:47:43.738Z,50.29
2022-09-01T08:49:26.598Z,49.90
2022-09-01T08:50:24.047Z,49.59
2022-09-01T08:51:24.032Z,49.90
2022-09-01T08:52:25.298Z,50.62
2022-09-01T08:53:23.994Z,50.02
2022-09-01T08:54:29.640Z,50.29
2022-09-01T08:55:24.997Z,50.20
2022-09-01T08:56:23.966Z,49.79
2022-09-01T08:57:24.006Z,49.79
2022-09-01T08:58:23.905Z,49.49
2022-09-01T08:59:23.905Z,49.41
2022-09-01T09:00:23.896Z,49.82
2022-09-01T09:01:23.942Z,50.42
2022-09-01T09:02:24.015Z,50.12
2022-09-01T09:03:23.833Z,50.22
2022-09-01T09:04:23.869Z,49.90
2022-09-01T09:05:23.921Z,49.67
2022-09-01T09:06:24.088Z,48.85
2022-09-01T09:07:24.161Z,48.20
2022-09-01T09:08:23.859Z,47.80
2022-09-01T09:09:32.352Z,47.20
2022-09-01T09:10:24.840Z,47.53
2022-09-01T09:11:23.810Z,47.92
2022-09-01T09:12:23.877Z,48.13
2022-09-01T09:13:23.783Z,47.95
2022-09-01T09:14:23.792Z,48.65
2022-09-01T09:15:23.875Z,48.25
2022-09-01T09:16:23.921Z,47.95
2022-09-01T09:17:23.748Z,47.75
2022-09-01T09:18:39.171Z,47.53
2022-09-01T09:19:25.015Z,47.85
2022-09-01T09:20:23.685Z,47.72
2022-09-01T09:21:25.384Z,46.80
2022-09-01T09:22:23.646Z,46.91
2022-09-01T09:23:23.745Z,47.33
2022-09-01T09:24:23.610Z,47.92
2022-09-01T09:25:23.773Z,47.13
2022-09-01T09:26:23.655Z,47.42
2022-09-01T09:27:23.549Z,47.83
2022-09-01T09:28:23.534Z,47.20
2022-09-01T09:29:23.544Z,47.40
2022-09-01T09:30:23.552Z,46.98
2022-09-01T09:31:23.520Z,46.46
2022-09-01T09:32:35.141Z,44.99
2022-09-01T09:33:47.740Z,46.61
2022-09-01T09:34:24.536Z,46.75
2022-09-01T09:35:23.493Z,47.27
2022-09-01T09:36:25.607Z,47.67
2022-09-01T09:37:23.708Z,47.97
2022-09-01T09:38:24.349Z,46.95
2022-09-01T09:39:23.587Z,46.23
2022-09-01T09:40:23.557Z,45.83
2022-09-01T09:41:27.419Z,46.03
2022-09-01T09:42:23.348Z,46.35
2022-09-01T09:43:23.571Z,46.15
2022-09-01T09:44:23.322Z,46.57
2022-09-01T09:45:23.572Z,46.17
2022-09-01T09:46:24.770Z,46.47
2022-09-01T09:47:42.624Z,45.77
2022-09-01T09:48:24.256Z,45.17
2022-09-01T09:49:35.860Z,45.79
2022-09-01T09:50:24.235Z,46.50
2022-09-01T09:51:23.206Z,46.17
2022-09-01T09:52:23.212Z,46.27
2022-09-01T09:53:23.218Z,45.55
2022-09-01T09:54:23.186Z,45.55
2022-09-01T09:55:23.631Z,44.15
2022-09-01T09:56:23.238Z,43.75
2022-09-01T09:57:23.139Z,44.55
2022-09-01T09:58:23.159Z,44.95
2022-09-01T09:59:39.860Z,45.25
2022-09-01T10:00:25.633Z,44.35
2022-09-01T10:01:23.125Z,44.65
2022-09-01T10:02:23.171Z,45.95
2022-09-01T10:03:24.285Z,45.45
2022-09-01T10:04:23.097Z,45.55
2022-09-01T10:05:23.141Z,45.53
2022-09-01T10:06:23.032Z,44.73
2022-09-01T10:07:22.992Z,45.23
2022-09-01T10:08:23.113Z,45.33
2022-09-01T10:09:23.012Z,45.13
2022-09-01T10:10:22.969Z,46.01
2022-09-01T10:11:22.985Z,44.81
2022-09-01T10:12:22.924Z,45.03
2022-09-01T10:13:23.055Z,45.33
2022-09-01T10:14:35.888Z,46.23
2022-09-01T10:15:23.958Z,46.62
2022-09-01T10:16:23.024Z,46.43
2022-09-01T10:17:22.917Z,45.83
2022-09-01T10:18:28.960Z,45.63
2022-09-01T10:19:23.848Z,45.33
2022-09-01T10:20:22.877Z,45.31
2022-09-01T10:21:22.864Z,44.51
2022-09-01T10:22:22.817Z,44.51
2022-09-01T10:23:22.817Z,44.93
2022-09-01T10:24:26.915Z,45.23
2022-09-01T10:25:23.857Z,45.05
2022-09-01T10:26:22.804Z,45.35
2022-09-01T10:27:22.853Z,45.63
2022-09-01T10:28:22.933Z,45.83
2022-09-01T10:29:22.789Z,46.25
2022-09-01T10:30:22.683Z,46.13
2022-09-01T10:31:22.869Z,45.63
2022-09-01T10:33:28.102Z,44.51
2022-09-01T10:34:28.048Z,44.51
2022-09-01T10:35:28.733Z,44.51
2022-09-01T10:36:28.012Z,45.31
2022-09-01T10:37:28.637Z,45.29
2022-09-01T10:38:28.032Z,44.81
2022-09-01T10:39:40.865Z,45.31
2022-09-01T10:42:52.075Z,45.29
2022-09-01T10:43:51.542Z,45.89
2022-09-01T10:44:51.532Z,45.89
2022-09-01T10:46:05.266Z,45.98
2022-09-01T10:48:02.826Z,46.08
2022-09-01T10:49:03.741Z,46.50
2022-09-01T10:50:07.661Z,46.38
2022-09-01T10:51:03.776Z,46.88
2022-09-01T10:52:04.462Z,46.70
2022-09-01T10:53:04.965Z,46.48
2022-09-01T10:54:02.759Z,46.58
2022-09-01T10:55:10.276Z,46.80
2022-09-01T10:56:04.884Z,46.98
2022-09-01T10:57:08.724Z,47.28
2022-09-01T10:59:32.753Z,47.08
2022-09-01T11:01:24.887Z,46.76
2022-09-01T11:02:23.565Z,46.46
2022-09-01T11:04:14.983Z,46.96
2022-09-01T11:05:14.222Z,47.26
2022-09-01T11:06:13.924Z,46.86
2022-09-01T11:07:14.278Z,46.64
2022-09-01T11:08:15.613Z,46.66
2022-09-01T11:09:21.442Z,46.86
2022-09-01T11:10:31.373Z,47.26
2022-09-01T11:11:14.835Z,46.56
2022-09-01T11:12:13.825Z,46.54
2022-09-01T11:13:13.805Z,46.84
2022-09-01T11:14:13.806Z,46.44
2022-09-01T11:15:13.775Z,46.04
2022-09-01T11:16:14.078Z,46.34
2022-09-01T11:17:13.811Z,46.44
2022-09-01T11:18:14.642Z,47.33
2022-09-01T11:19:16.161Z,46.81
2022-09-01T11:20:21.286Z,45.62
2022-09-01T11:21:13.711Z,45.32
2022-09-01T11:22:13.696Z,45.42
2022-09-01T11:23:14.944Z,45.32
2022-09-01T11:24:14.084Z,45.22
2022-09-01T11:25:13.705Z,45.72
2022-09-01T11:26:20.896Z,46.42
2022-09-01T11:27:14.630Z,47.21
2022-09-01T11:28:13.608Z,46.91
2022-09-01T11:29:13.607Z,46.00
2022-09-01T11:30:13.581Z,46.30
2022-09-01T11:31:13.599Z,46.00
2022-09-01T11:32:13.639Z,45.87
2022-09-01T11:33:14.612Z,45.60
2022-09-01T11:34:13.563Z,45.82
2022-09-01T11:35:13.522Z,46.34
2022-09-01T11:36:13.512Z,46.54
2022-09-01T11:37:13.502Z,46.44
2022-09-01T11:38:13.483Z,46.12
2022-09-01T11:39:13.503Z,46.01
2022-09-01T11:40:13.509Z,46.12
2022-09-01T11:41:13.476Z,45.72
2022-09-01T11:42:13.465Z,46.31
2022-09-01T11:43:13.505Z,46.64
2022-09-01T11:44:13.424Z,47.14
2022-09-01T11:45:20.587Z,47.24
2022-09-01T11:46:14.428Z,46.64
2022-09-01T11:47:14.578Z,46.51
2022-09-01T11:48:13.377Z,46.01
2022-09-01T11:49:13.376Z,45.92
2022-09-01T11:50:13.394Z,46.01
2022-09-01T11:51:14.564Z,46.72
2022-09-01T11:52:13.306Z,46.39
2022-09-01T11:53:13.294Z,46.39
2022-09-01T11:54:13.357Z,46.49
2022-09-01T11:55:13.284Z,45.28
2022-09-01T11:56:13.269Z,45.18
2022-09-01T11:57:13.232Z,45.67
2022-09-01T11:58:17.686Z,45.45
2022-09-01T11:59:13.245Z,44.85
2022-09-01T12:00:13.194Z,45.85
2022-09-01T12:01:13.172Z,45.45
2022-09-01T12:02:13.304Z,45.15
2022-09-01T12:03:13.314Z,45.45
2022-09-01T12:04:13.153Z,45.85
2022-09-01T12:05:13.124Z,45.45
2022-09-01T12:06:13.115Z,46.05
2022-09-01T12:07:13.110Z,45.36
2022-09-01T12:08:13.109Z,44.76
2022-09-01T12:09:13.111Z,44.98
2022-09-01T12:10:13.064Z,45.67
2022-09-01T12:11:13.050Z,46.27
2022-09-01T12:12:13.062Z,45.78
2022-09-01T12:13:13.085Z,45.75
2022-09-01T12:14:13.116Z,45.45
2022-09-01T12:15:13.826Z,45.93
2022-09-01T12:16:20.194Z,44.93
2022-09-01T12:17:14.074Z,44.20
2022-09-01T12:18:12.987Z,43.78
2022-09-01T12:19:12.938Z,43.68
2022-09-01T12:20:13.029Z,43.76
2022-09-01T12:21:12.937Z,43.54
2022-09-01T12:22:12.934Z,41.89
2022-09-01T12:23:12.913Z,41.08
2022-09-01T12:24:12.909Z,40.56
2022-09-01T12:25:12.873Z,40.34
2022-09-01T12:26:12.872Z,39.22
2022-09-01T12:27:12.832Z,39.00
2022-09-01T12:28:12.824Z,39.00
2022-09-01T12:29:12.810Z,39.28
2022-09-01T12:30:12.896Z,38.47
2022-09-01T12:31:12.812Z,37.57
2022-09-01T12:32:12.880Z,37.47
2022-09-01T12:33:28.019Z,37.17
2022-09-01T12:34:13.768Z,36.66
2022-09-01T12:35:12.746Z,36.86
2022-09-01T12:36:12.782Z,37.37
2022-09-01T12:37:12.836Z,37.88
2022-09-01T12:38:12.917Z,37.78
2022-09-01T12:39:12.689Z,38.39
2022-09-01T12:40:12.703Z,38.10
2022-09-01T12:41:12.743Z,40.64
2022-09-01T12:42:12.660Z,38.06
2022-09-01T12:43:12.660Z,37.93
2022-09-01T12:44:12.608Z,37.10
2022-09-01T12:45:12.623Z,36.90
2022-09-01T12:46:12.633Z,36.99
2022-09-01T12:47:12.613Z,36.23
2022-09-01T12:48:12.553Z,37.22
2022-09-01T12:49:12.670Z,36.33
2022-09-01T12:50:12.583Z,36.72
2022-09-01T12:51:12.611Z,36.65
2022-09-01T12:52:14.684Z,36.35
2022-09-01T12:53:12.756Z,36.35
2022-09-01T12:54:12.496Z,36.55
2022-09-01T12:55:12.492Z,35.94
2022-09-01T12:56:12.464Z,36.13
2022-09-01T12:57:12.457Z,36.11
2022-09-01T12:58:12.457Z,36.90
2022-09-01T12:59:15.774Z,36.20
2022-09-01T13:00:13.409Z,37.45
2022-09-01T13:01:16.440Z,39.20
2022-09-01T13:02:12.518Z,37.70
2022-09-01T13:03:12.506Z,38.16
2022-09-01T13:04:12.405Z,37.26
2022-09-01T13:05:12.331Z,37.19
2022-09-01T13:06:12.391Z,37.98
2022-09-01T13:07:12.315Z,38.53
2022-09-01T13:08:12.308Z,38.81
2022-09-01T13:09:12.342Z,38.69
2022-09-01T13:10:12.343Z,38.08
2022-09-01T13:11:12.254Z,37.66
2022-09-01T13:12:12.273Z,38.31
2022-09-01T13:13:12.346Z,40.29
2022-09-01T13:14:12.236Z,41.85
2022-09-01T13:15:15.240Z,41.20
2022-09-01T13:16:12.273Z,40.76
2022-09-01T13:17:14.163Z,40.34
2022-09-01T13:18:12.188Z,39.72
2022-09-01T13:19:12.301Z,38.69
2022-09-01T13:20:12.162Z,38.59
2022-09-01T13:21:12.558Z,38.47
2022-09-01T13:22:12.140Z,37.88
2022-09-01T13:23:12.125Z,37.47
2022-09-01T13:24:12.088Z,37.14
2022-09-01T13:25:12.093Z,37.22
2022-09-01T13:26:12.109Z,36.20
2022-09-01T13:27:27.439Z,35.28
2022-09-01T13:28:13.306Z,35.39
2022-09-01T13:29:12.052Z,35.21
2022-09-01T13:30:12.014Z,35.41
2022-09-01T13:32:21.410Z,38.24
2022-09-01T13:33:21.703Z,36.92
2022-09-01T13:34:21.855Z,36.02
2022-09-01T13:35:12.948Z,35.51
2022-09-01T13:37:12.954Z,35.21
2022-09-01T13:38:11.914Z,35.72
2022-09-01T13:39:11.909Z,36.11
2022-09-01T13:40:11.984Z,36.74
2022-09-01T13:41:11.875Z,36.98
2022-09-01T13:42:11.880Z,37.60
2022-09-01T13:43:11.891Z,37.78
2022-09-01T13:44:11.867Z,36.68
2022-09-01T13:45:12.020Z,36.66
2022-09-01T13:46:11.889Z,36.65
2022-09-01T13:48:16.496Z,36.66
2022-09-01T13:49:43.638Z,36.78
2022-09-01T13:50:14.548Z,36.76
2022-09-01T13:51:16.860Z,37.14
2022-09-01T13:52:12.747Z,36.11
2022-09-01T13:53:11.716Z,34.90
2022-09-01T13:54:12.106Z,35.08
2022-09-01T13:55:11.726Z,36.08
2022-09-01T13:56:11.833Z,35.21
2022-09-01T13:57:11.789Z,35.33
2022-09-01T13:58:11.689Z,35.25
2022-09-01T13:59:11.726Z,35.56
2022-09-01T14:00:11.668Z,35.97
2022-09-01T14:01:11.662Z,37.35
2022-09-01T14:02:11.603Z,36.90
2022-09-01T14:03:11.612Z,38.61
2022-09-01T14:04:11.685Z,38.65
2022-09-01T14:05:11.560Z,39.40
2022-09-01T14:06:11.574Z,40.31
2022-09-01T14:07:11.671Z,39.58
2022-09-01T14:08:11.572Z,39.06
2022-09-01T14:09:15.591Z,38.73
2022-09-01T14:10:12.784Z,37.21